Zacatecas, México

5:13 AM CDT en Septiembre 22, 2014 (GMT -0500)
Gen Leobardo C Ruiz International | Change Station
CLOSE
Current Station
Aeropuerto
Location: Zacatecas Airport,
Altura: 7139 ft
Estaciones meteorológicas cercanas

Alt 7139 ft 22.90 °N, 102.69 °W | Updated 25 minutes ago

Scattered Clouds
Nubes dispersas
59 ° F
Sensación térmica 59 ° F
N
0
Viento Variable Viento desde Norte

Hoy
Alta -- | Baja -- ° F
--% Posibilidad de precipitaciones
Ayer
Alta -- | Baja -- ° F
Precip. -- pul
7:39 AM 7:46 PM
Creciente menguante, 3% visible
Presión 30.29 pul
Visibilidad 10.0 Millas
Nubes Nubes dispersas 4000 ft
Punto de rocío 54 ° F
Humedad 82%
Precipitaciones 0.00 pul
Espesor de la nieve No disponible.
UV 0 de una escala de 12
Polen No disponible.
Calidad del aire No disponible.
Flu Activity No disponible.
METAR MMZC 220948Z 00000KT 10SM SCT040 15/12 A3029 RMK 8/400

More Conditions Fewer Conditions

Presión 30.29 pul
Visibilidad 10.0 Millas
Nubes Nubes dispersas 4000 ft
Punto de rocío 54 ° F
Humedad 82%
Precipitaciones 0.00 pul
Espesor de la nieve No disponible.
UV 0 de una escala de 12
Polen No disponible.
Calidad del aire No disponible.
Flu Activity No disponible.
METAR MMZC 220948Z 00000KT 10SM SCT040 15/12 A3029 RMK 8/400

More Conditions Fewer Conditions

10-Day Weather Forecast

Almanac

Astronomía

Sep. 22, 2014 Salida Puesta
Hora real 7:39 AM CDT 7:46 PM CDT
Crepúsculo civil 7:16 AM CDT 8:08 PM CDT
Crepúsculo náutico 6:50 AM CDT 8:34 PM CDT
Crepúsculo astronómico 6:24 AM CDT 9:01 PM CDT
Luna 6:16 AM CDT 6:51 PM CDT
Horas de luz 12h 52m
Horas de luz
12h 07m
Tomorrow will be 1m 19s shorter.
Creciente menguante, 3% of the Moon is Illuminated
Hoy
Creciente menguante
Sep 24
Nueva
Oct 1
Cuarto creciente
Oct 8
Luna llena
Oct 15
Cuarto menguante

Extremos de ayer

Máximos del país Bajas del país

Community

WunderPhotos

Upload Photos

1,755,404 ¡fotos cargadas!

Nearby

Calidad del aire

Not available.

Grosos de nieve

Not available.

Actividad de terremotos

Ciudad Distance Mag. Tiempo y dato
No hay informes recientes de la actividad sísmica.
Magnitud mínima muestra es 2,5.

Temperaturas de aguas costeras

Lugar Temperatura
Sin partes meteorológicos de las estaciones

Estaciones meteorológicas cercanas